createdAt,value
2023-07-16T00:01:52.105Z,1.90
2023-07-16T00:04:18.603Z,1.80
2023-07-16T00:06:45.087Z,2.03
2023-07-16T00:09:11.552Z,1.98
2023-07-16T00:11:37.989Z,1.63
2023-07-16T00:14:04.460Z,1.83
2023-07-16T00:16:30.921Z,1.80
2023-07-16T00:18:57.388Z,1.55
2023-07-16T00:21:24.826Z,1.50
2023-07-16T00:23:51.284Z,1.60
2023-07-16T00:26:17.998Z,1.88
2023-07-16T00:28:44.576Z,1.75
2023-07-16T00:31:12.557Z,1.60
2023-07-16T00:33:39.049Z,1.50
2023-07-16T00:36:05.629Z,1.50
2023-07-16T00:38:32.433Z,1.67
2023-07-16T00:40:58.905Z,1.45
2023-07-16T00:43:25.694Z,1.67
2023-07-16T00:45:52.161Z,1.65
2023-07-16T00:48:19.424Z,1.80
2023-07-16T00:50:45.940Z,1.60
2023-07-16T00:53:13.399Z,1.70
2023-07-16T00:55:40.537Z,2.25
2023-07-16T00:58:07.987Z,1.90
2023-07-16T01:00:38.999Z,1.70
2023-07-16T01:03:07.550Z,1.80
2023-07-16T01:06:13.276Z,1.70
2023-07-16T01:08:42.902Z,1.73
2023-07-16T01:11:10.035Z,2.00
2023-07-16T01:13:36.839Z,2.08
2023-07-16T01:16:03.534Z,2.30
2023-07-16T01:18:30.121Z,1.70
2023-07-16T01:20:56.697Z,1.70
2023-07-16T01:23:42.049Z,1.80
2023-07-16T01:26:27.707Z,1.98
2023-07-16T01:28:57.043Z,1.95
2023-07-16T01:31:23.972Z,1.60
2023-07-16T01:33:52.189Z,1.77
2023-07-16T01:36:19.688Z,1.90
2023-07-16T01:38:46.448Z,1.60
2023-07-16T01:41:12.955Z,2.30
2023-07-16T01:43:39.432Z,1.90
2023-07-16T01:46:06.204Z,1.70
2023-07-16T01:48:36.980Z,2.08
2023-07-16T01:51:04.057Z,1.70
2023-07-16T01:53:31.026Z,1.58
2023-07-16T01:55:57.508Z,2.10
2023-07-16T01:58:24.434Z,2.22
2023-07-16T02:00:51.411Z,2.15
2023-07-16T02:03:17.964Z,1.60
2023-07-16T02:05:44.518Z,1.65
2023-07-16T02:08:10.979Z,1.98
2023-07-16T02:10:37.464Z,2.25
2023-07-16T02:13:03.966Z,2.08
2023-07-16T02:15:30.469Z,2.10
2023-07-16T02:17:56.974Z,1.95
2023-07-16T02:20:23.542Z,2.30
2023-07-16T02:22:50.065Z,2.38
2023-07-16T02:25:16.583Z,2.10
2023-07-16T02:27:42.998Z,2.30
2023-07-16T02:30:09.764Z,2.08
2023-07-16T02:32:36.196Z,1.92
2023-07-16T02:35:04.134Z,2.42
2023-07-16T02:37:30.636Z,2.65
2023-07-16T02:39:57.084Z,2.40
2023-07-16T02:42:23.736Z,2.20
2023-07-16T02:44:50.152Z,2.25
2023-07-16T02:47:16.688Z,2.08
2023-07-16T02:49:43.207Z,2.17
2023-07-16T02:52:09.652Z,2.20
2023-07-16T02:54:36.784Z,2.00
2023-07-16T02:57:03.472Z,2.35
2023-07-16T02:59:29.957Z,2.05
2023-07-16T03:01:56.516Z,2.13
2023-07-16T03:04:23.121Z,2.33
2023-07-16T03:06:49.553Z,1.98
2023-07-16T03:09:16.111Z,2.30
2023-07-16T03:11:42.552Z,2.55
2023-07-16T03:14:09.029Z,2.20
2023-07-16T03:16:35.482Z,2.17
2023-07-16T03:19:03.904Z,2.38
2023-07-16T03:21:30.738Z,2.28
2023-07-16T03:23:57.175Z,2.38
2023-07-16T03:26:23.631Z,2.40
2023-07-16T03:28:50.062Z,2.28
2023-07-16T03:31:16.708Z,2.42
2023-07-16T03:33:43.202Z,2.83
2023-07-16T03:36:09.636Z,2.75
2023-07-16T03:38:36.085Z,2.40
2023-07-16T03:41:03.178Z,2.83
2023-07-16T03:43:29.610Z,2.50
2023-07-16T03:45:56.078Z,2.75
2023-07-16T03:48:22.685Z,2.80
2023-07-16T03:50:49.226Z,2.60
2023-07-16T03:53:15.646Z,2.45
2023-07-16T03:55:42.073Z,2.50
2023-07-16T03:58:08.524Z,2.45
2023-07-16T04:00:34.962Z,2.90
2023-07-16T04:03:01.494Z,2.65
2023-07-16T04:05:28.041Z,2.67
2023-07-16T04:07:54.474Z,3.13
2023-07-16T04:10:21.124Z,2.95
2023-07-16T04:12:47.637Z,2.97
2023-07-16T04:15:14.125Z,2.78
2023-07-16T04:17:40.658Z,2.80
2023-07-16T04:20:08.154Z,2.85
2023-07-16T04:22:35.640Z,2.97
2023-07-16T04:25:02.298Z,2.58
2023-07-16T04:27:28.733Z,2.85
2023-07-16T04:29:55.218Z,2.67
2023-07-16T04:32:21.770Z,2.85
2023-07-16T04:34:48.206Z,2.65
2023-07-16T04:37:14.652Z,2.80
2023-07-16T04:39:41.058Z,2.50
2023-07-16T04:42:07.522Z,2.55
2023-07-16T04:44:34.032Z,2.50
2023-07-16T04:47:00.580Z,2.33
2023-07-16T04:49:27.188Z,2.50
2023-07-16T04:51:53.607Z,2.80
2023-07-16T04:54:20.107Z,2.40
2023-07-16T04:56:46.538Z,2.47
2023-07-16T04:59:12.992Z,2.60
2023-07-16T05:01:39.463Z,2.20
2023-07-16T05:04:06.060Z,2.45
2023-07-16T05:06:32.620Z,2.35
2023-07-16T05:08:59.086Z,2.33
2023-07-16T05:11:26.714Z,2.20
2023-07-16T05:13:53.172Z,2.22
2023-07-16T05:16:19.951Z,2.30
2023-07-16T05:18:46.657Z,2.17
2023-07-16T05:21:13.078Z,2.10
2023-07-16T05:23:39.492Z,2.10
2023-07-16T05:26:05.943Z,2.10
2023-07-16T05:28:32.449Z,2.25
2023-07-16T05:31:02.901Z,2.17
2023-07-16T05:33:29.527Z,2.25
2023-07-16T05:35:56.550Z,2.28
2023-07-16T05:38:23.036Z,1.83
2023-07-16T05:40:49.527Z,2.15
2023-07-16T05:43:16.003Z,2.30
2023-07-16T05:45:42.630Z,1.77
2023-07-16T05:48:09.243Z,2.20
2023-07-16T05:50:35.790Z,2.13
2023-07-16T05:53:02.252Z,2.00
2023-07-16T05:55:28.782Z,2.00
2023-07-16T05:57:55.241Z,1.90
2023-07-16T06:00:21.772Z,2.28
2023-07-16T06:02:48.257Z,2.30
2023-07-16T06:05:14.671Z,2.00
2023-07-16T06:07:41.131Z,2.20
2023-07-16T06:10:08.112Z,2.35
2023-07-16T06:12:34.544Z,2.30
2023-07-16T06:15:01.428Z,2.40
2023-07-16T06:17:27.875Z,2.30
2023-07-16T06:19:54.417Z,2.55
2023-07-16T06:22:20.978Z,2.75
2023-07-16T06:24:47.438Z,2.22
2023-07-16T06:27:14.024Z,2.47
2023-07-16T06:29:40.440Z,2.67
2023-07-16T06:32:07.747Z,2.80
2023-07-16T06:34:34.188Z,2.97
2023-07-16T06:37:00.667Z,2.90
2023-07-16T06:39:27.166Z,3.00
2023-07-16T06:41:53.668Z,4.00
2023-07-16T06:44:20.118Z,3.15
2023-07-16T06:46:46.559Z,3.08
2023-07-16T06:49:13.024Z,3.65
2023-07-16T06:51:39.472Z,3.47
2023-07-16T06:54:06.011Z,3.38
2023-07-16T06:56:32.449Z,3.35
2023-07-16T06:58:58.934Z,3.03
2023-07-16T07:01:25.711Z,3.67
2023-07-16T07:03:52.248Z,3.60
2023-07-16T07:06:19.022Z,3.58
2023-07-16T07:08:45.592Z,3.13
2023-07-16T07:11:12.059Z,3.47
2023-07-16T07:13:38.578Z,3.17
2023-07-16T07:16:05.094Z,3.35
2023-07-16T07:18:31.692Z,3.08
2023-07-16T07:20:58.110Z,3.40
2023-07-16T07:23:24.515Z,3.15
2023-07-16T07:25:52.273Z,3.78
2023-07-16T07:28:19.799Z,3.60
2023-07-16T07:30:46.357Z,3.85
2023-07-16T07:33:13.271Z,3.40
2023-07-16T07:35:39.695Z,3.70
2023-07-16T07:38:06.218Z,3.45
2023-07-16T07:40:32.639Z,3.95
2023-07-16T07:42:59.161Z,3.70
2023-07-16T07:45:26.711Z,4.18
2023-07-16T07:47:53.354Z,3.45
2023-07-16T07:50:19.849Z,3.80
2023-07-16T07:52:46.302Z,3.55
2023-07-16T07:55:12.872Z,3.67
2023-07-16T07:57:39.320Z,3.58
2023-07-16T08:00:06.566Z,3.90
2023-07-16T08:02:33.114Z,3.53
2023-07-16T08:05:01.431Z,3.35
2023-07-16T08:07:29.654Z,3.40
2023-07-16T08:09:56.126Z,3.22
2023-07-16T08:12:22.586Z,3.00
2023-07-16T08:14:49.262Z,3.45
2023-07-16T08:17:15.773Z,3.03
2023-07-16T08:19:42.247Z,2.88
2023-07-16T08:22:08.666Z,3.17
2023-07-16T08:24:35.094Z,3.17
2023-07-16T08:27:01.559Z,3.53
2023-07-16T08:29:28.095Z,3.13
2023-07-16T08:31:54.636Z,3.30
2023-07-16T08:34:21.087Z,3.42
2023-07-16T08:36:47.578Z,3.17
2023-07-16T08:39:14.037Z,3.53
2023-07-16T08:41:40.476Z,3.35
2023-07-16T08:44:07.338Z,3.33
2023-07-16T08:46:34.067Z,2.97
2023-07-16T08:49:00.575Z,3.15
2023-07-16T08:51:27.844Z,3.58
2023-07-16T08:53:54.305Z,3.55
2023-07-16T08:56:21.323Z,3.15
2023-07-16T08:58:48.577Z,3.50
2023-07-16T09:01:19.294Z,3.42
2023-07-16T09:03:47.575Z,3.58
2023-07-16T09:06:14.413Z,3.47
2023-07-16T09:08:41.194Z,3.20
2023-07-16T09:11:12.544Z,3.33
2023-07-16T09:13:38.992Z,3.13
2023-07-16T09:16:05.507Z,3.60
2023-07-16T09:18:32.050Z,3.50
2023-07-16T09:20:59.546Z,3.65
2023-07-16T09:23:28.133Z,3.78
2023-07-16T09:25:55.475Z,3.55
2023-07-16T09:28:22.307Z,3.65
2023-07-16T09:30:49.209Z,3.45
2023-07-16T09:33:24.056Z,3.28
2023-07-16T09:35:51.197Z,3.58
2023-07-16T09:38:18.524Z,3.58
2023-07-16T09:40:45.455Z,3.35
2023-07-16T09:43:13.206Z,3.30
2023-07-16T09:45:39.783Z,3.22
2023-07-16T09:48:06.832Z,2.90
2023-07-16T09:50:34.945Z,2.75
2023-07-16T09:53:01.457Z,3.08
2023-07-16T09:55:28.409Z,3.08
2023-07-16T09:57:57.473Z,2.92
2023-07-16T10:00:24.499Z,3.47
2023-07-16T10:02:53.119Z,2.92
2023-07-16T10:05:26.003Z,3.10
2023-07-16T10:08:00.008Z,3.08
2023-07-16T10:10:44.490Z,3.28
2023-07-16T10:13:13.098Z,3.13
2023-07-16T10:15:42.662Z,3.08
2023-07-16T10:18:09.138Z,3.03
2023-07-16T10:20:43.524Z,2.80
2023-07-16T10:23:15.119Z,2.75
2023-07-16T10:25:42.745Z,2.65
2023-07-16T10:28:09.229Z,2.65
2023-07-16T10:30:36.136Z,3.55
2023-07-16T10:33:13.904Z,2.75
2023-07-16T10:35:48.030Z,2.88
2023-07-16T10:38:17.384Z,2.78
2023-07-16T10:40:45.785Z,2.75
2023-07-16T10:43:13.026Z,2.90
2023-07-16T10:45:40.297Z,2.80
2023-07-16T10:48:06.854Z,2.95
2023-07-16T10:50:35.305Z,3.17
2023-07-16T10:53:01.993Z,2.90
2023-07-16T10:55:32.771Z,2.78
2023-07-16T10:58:05.152Z,3.28
2023-07-16T11:00:31.575Z,2.70
2023-07-16T11:02:58.198Z,2.80
2023-07-16T11:05:24.722Z,2.88
2023-07-16T11:07:54.943Z,2.75
2023-07-16T11:10:24.464Z,3.05
2023-07-16T11:12:54.419Z,2.55
2023-07-16T11:15:34.363Z,3.25
2023-07-16T11:18:02.377Z,2.88
2023-07-16T11:20:30.354Z,2.95
2023-07-16T11:22:59.543Z,2.78
2023-07-16T11:25:26.534Z,2.80
2023-07-16T11:27:56.120Z,2.58
2023-07-16T11:30:26.472Z,2.80
2023-07-16T11:32:53.399Z,3.08
2023-07-16T11:35:20.763Z,3.10
2023-07-16T11:37:47.779Z,3.25
2023-07-16T11:40:19.498Z,2.90
2023-07-16T11:42:46.538Z,3.00
2023-07-16T11:45:24.206Z,2.70
2023-07-16T11:47:50.734Z,2.85
2023-07-16T11:50:17.473Z,2.95
2023-07-16T11:52:44.121Z,2.83
2023-07-16T11:55:10.607Z,3.10
2023-07-16T11:57:37.059Z,3.28
2023-07-16T12:00:06.666Z,2.85
2023-07-16T12:02:33.191Z,2.95
2023-07-16T12:05:00.840Z,2.92
2023-07-16T12:07:37.043Z,3.20
2023-07-16T12:10:04.879Z,2.63
2023-07-16T12:12:31.505Z,2.65
2023-07-16T12:14:58.062Z,3.00
2023-07-16T12:17:24.675Z,2.53
2023-07-16T12:19:51.210Z,3.03
2023-07-16T12:22:18.943Z,3.00
2023-07-16T12:24:47.213Z,2.50
2023-07-16T12:27:15.776Z,2.80
2023-07-16T12:29:42.355Z,2.53
2023-07-16T12:32:09.374Z,2.80
2023-07-16T12:34:36.716Z,3.20
2023-07-16T12:37:03.646Z,2.80
2023-07-16T12:39:30.119Z,2.60
2023-07-16T12:41:56.584Z,2.70
2023-07-16T12:44:23.007Z,2.70
2023-07-16T12:46:49.472Z,2.60
2023-07-16T12:49:16.459Z,2.55
2023-07-16T12:51:42.895Z,2.45
2023-07-16T12:54:09.501Z,2.63
2023-07-16T12:56:35.913Z,2.38
2023-07-16T12:59:02.329Z,2.60
2023-07-16T13:01:28.815Z,2.50
2023-07-16T13:03:55.390Z,2.83
2023-07-16T13:06:21.889Z,2.63
2023-07-16T13:08:48.338Z,2.80
2023-07-16T13:11:14.788Z,2.83
2023-07-16T13:13:42.841Z,2.80
2023-07-16T13:16:09.259Z,2.50
2023-07-16T13:18:35.772Z,2.75
2023-07-16T13:21:02.204Z,2.65
2023-07-16T13:23:28.645Z,2.70
2023-07-16T13:25:56.853Z,2.65
2023-07-16T13:28:24.781Z,2.90
2023-07-16T13:30:51.289Z,3.00
2023-07-16T13:33:17.752Z,2.90
2023-07-16T13:35:44.557Z,3.05
2023-07-16T13:38:11.051Z,2.45
2023-07-16T13:40:37.470Z,2.72
2023-07-16T13:43:04.133Z,2.83
2023-07-16T13:45:30.616Z,3.22
2023-07-16T13:47:57.102Z,2.85
2023-07-16T13:50:23.597Z,2.58
2023-07-16T13:52:50.066Z,2.85
2023-07-16T13:55:16.536Z,2.00
2023-07-16T13:57:44.113Z,2.25
2023-07-16T14:00:11.282Z,2.20
2023-07-16T14:02:37.957Z,2.20
2023-07-16T14:05:05.622Z,2.38
2023-07-16T14:07:32.068Z,2.42
2023-07-16T14:09:58.602Z,2.40
2023-07-16T14:12:25.084Z,2.65
2023-07-16T14:14:51.504Z,2.42
2023-07-16T14:17:18.164Z,2.42
2023-07-16T14:19:44.704Z,1.95
2023-07-16T14:22:15.564Z,1.88
2023-07-16T14:24:42.831Z,1.92
2023-07-16T14:27:09.616Z,1.83
2023-07-16T14:29:36.687Z,2.20
2023-07-16T14:32:05.614Z,2.40
2023-07-16T14:34:32.111Z,2.75
2023-07-16T14:36:58.541Z,2.35
2023-07-16T14:39:25.014Z,2.30
2023-07-16T14:41:51.512Z,2.50
2023-07-16T14:44:17.929Z,2.13
2023-07-16T14:46:44.436Z,2.30
2023-07-16T14:49:10.996Z,2.55
2023-07-16T14:51:40.496Z,2.30
2023-07-16T14:54:10.693Z,2.42
2023-07-16T14:56:37.783Z,2.30
2023-07-16T14:59:04.533Z,2.60
2023-07-16T15:01:31.033Z,2.60
2023-07-16T15:03:57.611Z,2.70
2023-07-16T15:06:25.303Z,2.33
2023-07-16T15:08:52.413Z,3.00
2023-07-16T15:11:18.928Z,2.63
2023-07-16T15:13:45.458Z,2.75
2023-07-16T15:16:13.838Z,2.40
2023-07-16T15:18:40.536Z,2.70
2023-07-16T15:21:07.052Z,2.55
2023-07-16T15:23:33.926Z,2.50
2023-07-16T15:26:06.386Z,2.60
2023-07-16T15:28:35.162Z,2.70
2023-07-16T15:31:02.341Z,2.78
2023-07-16T15:33:30.805Z,2.60
2023-07-16T15:35:58.332Z,2.97
2023-07-16T15:38:24.808Z,2.92
2023-07-16T15:40:51.495Z,2.70
2023-07-16T15:43:17.965Z,2.75
2023-07-16T15:45:44.434Z,2.33
2023-07-16T15:48:13.215Z,2.83
2023-07-16T15:50:40.403Z,2.60
2023-07-16T15:53:07.035Z,2.40
2023-07-16T15:55:33.464Z,2.78
2023-07-16T15:58:01.596Z,2.40
2023-07-16T16:00:28.155Z,2.38
2023-07-16T16:02:57.868Z,2.70
2023-07-16T16:05:24.424Z,3.00
2023-07-16T16:08:16.716Z,2.28
2023-07-16T16:13:10.978Z,2.50
2023-07-16T16:15:37.498Z,2.50
2023-07-16T16:18:04.007Z,2.67
2023-07-16T16:20:30.604Z,3.03
2023-07-16T16:22:57.412Z,2.80
2023-07-16T16:25:23.890Z,2.22
2023-07-16T16:27:50.351Z,2.50
2023-07-16T16:30:16.876Z,2.85
2023-07-16T16:32:43.344Z,2.70
2023-07-16T16:35:09.996Z,2.97
2023-07-16T16:37:36.461Z,2.75
2023-07-16T16:40:06.733Z,2.80
2023-07-16T16:42:33.402Z,2.67
2023-07-16T16:45:02.846Z,2.97
2023-07-16T16:47:29.389Z,2.60
2023-07-16T16:49:55.946Z,3.00
2023-07-16T16:52:22.559Z,2.70
2023-07-16T16:54:49.019Z,2.60
2023-07-16T16:57:15.483Z,2.80
2023-07-16T16:59:41.915Z,2.92
2023-07-16T17:02:10.813Z,2.80
2023-07-16T17:04:38.585Z,2.50
2023-07-16T17:07:05.624Z,2.63
2023-07-16T17:09:32.060Z,3.00
2023-07-16T17:11:58.470Z,2.90
2023-07-16T17:14:25.388Z,2.75
2023-07-16T17:16:51.972Z,2.65
2023-07-16T17:19:18.511Z,2.60
2023-07-16T17:21:45.123Z,2.65
2023-07-16T17:24:12.406Z,2.95
2023-07-16T17:26:40.928Z,2.75
2023-07-16T17:29:08.048Z,2.72
2023-07-16T17:31:35.442Z,2.30
2023-07-16T17:34:02.536Z,2.85
2023-07-16T17:36:30.797Z,2.70
2023-07-16T17:38:57.229Z,3.00
2023-07-16T17:41:23.766Z,2.80
2023-07-16T17:43:50.193Z,2.58
2023-07-16T17:46:16.979Z,3.10
2023-07-16T17:48:43.669Z,2.50
2023-07-16T17:51:10.307Z,3.50
2023-07-16T17:53:36.751Z,3.53
2023-07-16T17:56:04.367Z,8.10
2023-07-16T17:58:35.441Z,3.50
2023-07-16T18:01:02.511Z,3.20
2023-07-16T18:03:29.136Z,2.75
2023-07-16T18:05:58.652Z,2.38
2023-07-16T18:08:25.175Z,2.50
2023-07-16T18:10:51.997Z,2.50
2023-07-16T18:13:18.461Z,2.72
2023-07-16T18:15:44.912Z,2.63
2023-07-16T18:18:11.375Z,2.72
2023-07-16T18:20:38.800Z,2.42
2023-07-16T18:23:05.563Z,2.80
2023-07-16T18:25:32.017Z,2.47
2023-07-16T18:27:59.342Z,2.78
2023-07-16T18:30:25.884Z,2.60
2023-07-16T18:32:52.357Z,2.67
2023-07-16T18:35:19.380Z,2.42
2023-07-16T18:37:45.924Z,2.42
2023-07-16T18:40:12.477Z,2.15
2023-07-16T18:42:38.932Z,2.40
2023-07-16T18:45:07.195Z,2.40
2023-07-16T18:47:33.934Z,2.40
2023-07-16T18:50:00.793Z,2.50
2023-07-16T18:52:27.621Z,2.47
2023-07-16T18:54:56.020Z,2.35
2023-07-16T18:57:22.558Z,3.00
2023-07-16T18:59:49.001Z,2.78
2023-07-16T19:02:15.539Z,2.83
2023-07-16T19:04:42.068Z,2.75
2023-07-16T19:07:08.571Z,2.40
2023-07-16T19:09:35.469Z,2.30
2023-07-16T19:12:01.951Z,2.30
2023-07-16T19:14:28.606Z,2.45
2023-07-16T19:16:55.106Z,2.33
2023-07-16T19:19:21.565Z,2.60
2023-07-16T19:21:48.098Z,2.40
2023-07-16T19:24:14.625Z,2.40
2023-07-16T19:26:41.337Z,2.67
2023-07-16T19:29:07.756Z,2.50
2023-07-16T19:31:34.276Z,2.60
2023-07-16T19:34:01.071Z,2.60
2023-07-16T19:36:27.555Z,2.80
2023-07-16T19:38:54.039Z,2.75
2023-07-16T19:41:20.487Z,3.10
2023-07-16T19:43:46.953Z,2.83
2023-07-16T19:46:13.472Z,2.55
2023-07-16T19:48:39.897Z,2.90
2023-07-16T19:51:06.394Z,2.90
2023-07-16T19:53:33.141Z,2.65
2023-07-16T19:56:00.883Z,2.45
2023-07-16T19:58:27.487Z,3.00
2023-07-16T20:00:54.148Z,2.50
2023-07-16T20:03:23.595Z,2.70
2023-07-16T20:05:50.105Z,2.90
2023-07-16T20:08:17.654Z,2.60
2023-07-16T20:10:46.526Z,2.50
2023-07-16T20:13:13.795Z,2.70
2023-07-16T20:15:40.981Z,2.65
2023-07-16T20:18:07.602Z,3.10
2023-07-16T20:20:36.209Z,2.75
2023-07-16T20:23:02.848Z,2.90
2023-07-16T20:25:29.592Z,2.92
2023-07-16T20:27:57.298Z,3.08
2023-07-16T20:30:24.597Z,2.33
2023-07-16T20:32:51.115Z,3.13
2023-07-16T20:35:17.850Z,2.85
2023-07-16T20:37:44.353Z,2.90
2023-07-16T20:40:16.121Z,2.88
2023-07-16T20:42:44.706Z,2.78
2023-07-16T20:45:17.980Z,2.80
2023-07-16T20:47:46.145Z,2.80
2023-07-16T20:50:13.536Z,2.72
2023-07-16T20:52:43.322Z,3.13
2023-07-16T20:55:10.160Z,3.03
2023-07-16T20:57:37.483Z,2.85
2023-07-16T21:00:10.003Z,2.97
2023-07-16T21:02:37.586Z,3.15
2023-07-16T21:05:06.795Z,2.85
2023-07-16T21:07:37.232Z,2.80
2023-07-16T21:10:03.966Z,2.72
2023-07-16T21:12:30.618Z,2.63
2023-07-16T21:14:57.226Z,2.75
2023-07-16T21:17:24.258Z,2.88
2023-07-16T21:19:51.984Z,3.20
2023-07-16T21:22:18.418Z,3.13
2023-07-16T21:24:45.251Z,3.10
2023-07-16T21:27:11.732Z,2.70
2023-07-16T21:29:38.239Z,3.53
2023-07-16T21:32:04.994Z,3.22
2023-07-16T21:34:31.543Z,3.00
2023-07-16T21:36:59.850Z,3.10
2023-07-16T21:39:26.289Z,3.65
2023-07-16T21:41:52.720Z,2.78
2023-07-16T21:44:19.274Z,2.85
2023-07-16T21:46:45.882Z,3.60
2023-07-16T21:49:12.401Z,3.00
2023-07-16T21:51:38.812Z,4.00
2023-07-16T21:54:06.432Z,3.88
2023-07-16T21:56:33.841Z,3.78
2023-07-16T21:59:00.592Z,3.33
2023-07-16T22:01:28.620Z,3.25
2023-07-16T22:03:55.231Z,3.80
2023-07-16T22:06:21.709Z,3.65
2023-07-16T22:08:48.163Z,3.17
2023-07-16T22:11:14.808Z,3.40
2023-07-16T22:13:41.565Z,3.40
2023-07-16T22:16:08.085Z,3.58
2023-07-16T22:18:34.667Z,3.58
2023-07-16T22:21:01.222Z,4.07
2023-07-16T22:23:27.710Z,3.13
2023-07-16T22:25:54.159Z,3.35
2023-07-16T22:28:20.578Z,3.05
2023-07-16T22:30:47.158Z,3.20
2023-07-16T22:33:13.574Z,3.00
2023-07-16T22:35:40.030Z,3.22
2023-07-16T22:38:06.506Z,3.50
2023-07-16T22:40:33.058Z,3.13
2023-07-16T22:42:59.894Z,3.30
2023-07-16T22:45:26.328Z,3.05
2023-07-16T22:47:52.805Z,3.83
2023-07-16T22:50:19.298Z,3.72
2023-07-16T22:52:45.748Z,3.45
2023-07-16T22:55:12.201Z,4.03
2023-07-16T22:57:38.907Z,3.83
2023-07-16T23:00:08.116Z,3.80
2023-07-16T23:02:36.182Z,3.90
2023-07-16T23:05:02.692Z,3.28
2023-07-16T23:07:29.224Z,3.45
2023-07-16T23:09:55.864Z,3.15
2023-07-16T23:12:22.385Z,3.55
2023-07-16T23:14:48.859Z,4.05
2023-07-16T23:17:15.308Z,3.50
2023-07-16T23:19:41.781Z,3.92
2023-07-16T23:22:08.515Z,3.83
2023-07-16T23:24:34.947Z,3.50
2023-07-16T23:27:01.367Z,3.55
2023-07-16T23:29:28.464Z,2.88
2023-07-16T23:31:55.218Z,3.90
2023-07-16T23:34:21.691Z,4.05
2023-07-16T23:36:48.116Z,3.40
2023-07-16T23:39:14.544Z,3.70
2023-07-16T23:41:41.034Z,4.15
2023-07-16T23:44:07.912Z,3.92
2023-07-16T23:46:34.418Z,3.75
2023-07-16T23:49:01.020Z,4.10
2023-07-16T23:51:27.466Z,3.85
2023-07-16T23:53:54.206Z,3.72
2023-07-16T23:56:24.821Z,4.00
2023-07-16T23:58:51.318Z,3.80
